Aérodrome :
LOGIN :

S'inscrire | Disclaimer

   EN    FR    IT 

 










Légende :    VFR   VFR Marginal   IFR   IFR Intensif   IFR Très Intensif
Visi : 
Plafond : 
>= 8 km
>= 3000ft
5 à 8 km
1000 à 3000 ft
1500m à 5 km
500 à 1000 ft
800 à 1500m
200 à 500 ft
< 800m
< 200 ft
Symboles :   Orages  Brouillard  Fortes neiges  Fortes précipitations  Vent > 20 kt
SIGMETs :   Divers  Orages  Givrage  Turbulence  Onde Orograph.  Cendres Volcan.






- Altitude de l'aérodrome : 33 ft
- Code IATA : MHZ


EGUN - RAF Mildenhall

DERNIER METAR :
  • 220256Z AUTO 00000KT 9999 CLR M01/M01 A3031 RMK AO2 SLP268 T10071007 52005 FZRANO $

METARs EXPIRÉS :
  • 220156Z AUTO 03004KT 9999 CLR M01/M01 A3031 RMK AO2 SLP268 T10071007 FZRANO $
  • 220056Z AUTO 04003KT 9999 CLR 01/01 A3030 RMK AO2 SLP264 T00080008 FZRANO $

TAF TAF EGUN
Valide du 21 à 20h jusqu'au 23 à 02h UTC


212000Z 2120/2302 04010G20KT 9999 SCT060 QNH3028INS
BECMG 2120/2121 04006KT 9999 FEW030 QNH3030INS
BECMG 2205/2206 06009KT 9999 SKC QNH3036INS TX14/2214Z TN01/2204Z



MET'MAP, la Météo Aéronautique d'un coup d'oeil ! - Copyright ORBIFLY Décembre 2007 - Disclaimer

ORBIFLY MET'MAP TEAM :

Programmation & Développement : Alexandra Zaïnal
Sur une idée originale de : Baudouin d'Aumeries
Assistance à la programmation : Marc-Olivier Méhu
Soutien technique & logistique : Manuel Goepfert

Contact : metmap@orbifly.com




SOURCES & CREDITS :

   NOAA